Aviation Digital Data Service (ADDS)

Output produced by METARs form (1437 UTC 27 March 2017)
found at http://aviationweather.gov/adds/metars/
 
KFDY 271139Z 2712/2812 22005KT P6SM BKN015 
     FM271500 24007KT P6SM BKN025 
     FM271700 24008KT P6SM BKN050 
     FM272300 VRB03KT P6SM OVC100 
     FM280300 08006KT 5SM -RA BR OVC015 
     FM280500 04005KT 3SM -RA BR OVC007